Time;durP1;ratioP1;P1;durP2;ratioP2;P2;SDS_P1;SDS_P2;PMS_P1;PMS_P2;Temp;Humidity;BMP_temperature;BMP_pressure;BME280_temperature;BME280_humidity;BME280_pressure;Samples;Min_cycle;Max_cycle;Signal;HPM_P1;HPM_P2
2022/07/24 00:02:17;;;;;;;9.90;8.00;;;;;;;17.52;79.32;101813.91;4972334;28;20392;-75
2022/07/24 00:04:43;;;;;;;7.68;6.97;;;;;;;17.52;78.70;101808.56;4972238;28;20548;-75
2022/07/24 00:07:10;;;;;;;10.43;7.90;;;;;;;17.51;79.90;101807.72;4982326;28;20034;-75
2022/07/24 00:09:36;;;;;;;8.27;6.57;;;;;;;17.53;78.65;101810.25;4990971;28;20018;-75
2022/07/24 00:12:02;;;;;;;7.90;7.10;;;;;;;17.57;80.05;101814.34;4990137;28;20018;-75
2022/07/24 00:14:27;;;;;;;10.50;7.93;;;;;;;17.52;78.64;101806.75;4985514;28;20699;-75
2022/07/24 00:16:52;;;;;;;8.23;7.43;;;;;;;17.53;78.12;101799.63;4991905;28;20034;-75
2022/07/24 00:19:18;;;;;;;10.70;8.05;;;;;;;17.52;78.05;101793.44;5005582;28;20030;-75
2022/07/24 00:21:43;;;;;;;8.80;7.75;;;;;;;17.53;78.14;101797.78;5022911;28;20377;-75
2022/07/24 00:24:08;;;;;;;8.57;7.63;;;;;;;17.54;78.07;101788.00;4991234;28;20034;-75
2022/07/24 00:26:34;;;;;;;9.00;7.55;;;;;;;17.54;79.25;101799.47;4990578;28;20161;-75
2022/07/24 00:29:00;;;;;;;8.55;7.72;;;;;;;17.53;78.56;101789.81;4991361;28;20376;-76
2022/07/24 00:31:25;;;;;;;8.73;7.93;;;;;;;17.59;77.16;101792.91;4989443;28;20037;-76
2022/07/24 00:33:51;;;;;;;8.65;7.78;;;;;;;17.60;78.20;101789.25;4973544;28;20085;-75
2022/07/24 00:36:17;;;;;;;9.45;8.57;;;;;;;17.65;76.24;101797.72;4970415;28;20037;-75
2022/07/24 00:38:42;;;;;;;9.13;8.23;;;;;;;17.68;76.36;101794.81;4970341;28;20589;-76
2022/07/24 00:41:11;;;;;;;9.80;8.30;;;;;;;17.74;75.31;101797.75;4970999;28;20034;-76
2022/07/24 00:44:02;;;;;;;10.82;8.55;;;;;;;17.82;75.28;101805.91;4973268;28;20022;-76
2022/07/24 00:46:27;;;;;;;11.73;8.35;;;;;;;17.84;75.58;101798.63;5022170;28;20116;-76
2022/07/24 00:48:53;;;;;;;9.75;8.00;;;;;;;17.85;75.48;101808.28;4984638;28;20058;-75
2022/07/24 00:51:18;;;;;;;9.13;7.82;;;;;;;17.86;75.65;101806.47;4990377;28;20455;-76
2022/07/24 00:53:43;;;;;;;10.00;8.15;;;;;;;17.89;75.37;101795.53;4990189;28;20100;-76
2022/07/24 00:56:10;;;;;;;14.00;8.63;;;;;;;17.87;75.36;101797.50;4989508;28;20057;-76
2022/07/24 00:58:35;;;;;;;11.15;8.07;;;;;;;17.89;75.19;101794.69;4990015;28;20027;-76
2022/07/24 01:01:00;;;;;;;8.63;7.75;;;;;;;17.85;75.50;101800.28;4988979;28;20030;-76
2022/07/24 01:03:26;;;;;;;10.80;8.38;;;;;;;17.84;75.53;101797.78;4990421;28;20023;-76
2022/07/24 01:05:51;;;;;;;11.77;8.27;;;;;;;17.83;75.20;101796.94;4984876;28;20061;-76
2022/07/24 01:08:17;;;;;;;11.38;8.02;;;;;;;17.85;75.09;101800.28;4970708;28;20499;-76
2022/07/24 01:10:43;;;;;;;9.00;8.10;;;;;;;17.86;74.99;101790.50;5003150;28;20110;-76
2022/07/24 01:13:09;;;;;;;10.73;7.80;;;;;;;17.88;74.96;101788.53;4997315;28;20117;-76
2022/07/24 01:15:34;;;;;;;9.38;7.68;;;;;;;17.88;75.17;101788.53;4988935;28;20030;-75
2022/07/24 01:17:59;;;;;;;11.50;7.70;;;;;;;17.89;74.74;101784.88;5006228;28;20033;-76
2022/07/24 01:20:25;;;;;;;8.32;7.45;;;;;;;17.87;76.94;101796.66;4990169;28;20124;-75
2022/07/24 01:22:50;;;;;;;9.20;7.38;;;;;;;17.82;75.66;101794.41;4988776;28;20034;-75
2022/07/24 01:25:15;;;;;;;9.45;8.60;;;;;;;17.77;75.71;101786.00;4972357;28;20388;-75
2022/07/24 01:27:40;;;;;;;10.85;9.27;;;;;;;17.70;76.23;101791.03;4971171;28;20026;-75
2022/07/24 01:30:07;;;;;;;11.88;9.23;;;;;;;17.61;76.67;101790.94;4970959;28;20366;-75
2022/07/24 01:32:32;;;;;;;12.13;9.63;;;;;;;17.60;76.84;101791.91;4971107;28;20051;-75
2022/07/24 01:34:57;;;;;;;12.05;9.55;;;;;;;17.47;77.04;101779.72;4981391;28;20058;-75
2022/07/24 01:37:23;;;;;;;10.23;8.98;;;;;;;17.37;78.04;101789.50;4989285;28;20029;-75
2022/07/24 01:39:48;;;;;;;11.13;9.98;;;;;;;17.35;78.00;101791.44;4983122;28;20030;-77
2022/07/24 01:42:13;;;;;;;10.32;9.35;;;;;;;17.34;77.94;101784.44;4971185;28;20106;-75
2022/07/24 01:44:39;;;;;;;14.40;10.02;;;;;;;17.25;78.25;101779.94;4970398;28;20019;-75
2022/07/24 01:47:04;;;;;;;15.85;10.35;;;;;;;17.20;78.63;101782.13;4990112;28;20455;-75
2022/07/24 01:49:29;;;;;;;10.82;9.73;;;;;;;17.23;78.57;101782.72;4989603;28;20022;-75
2022/07/24 01:51:55;;;;;;;12.80;10.38;;;;;;;17.17;78.79;101777.91;4989591;28;20018;-75
2022/07/24 01:54:20;;;;;;;11.25;10.05;;;;;;;17.15;79.31;101779.03;4989702;28;20026;-75
2022/07/24 01:56:45;;;;;;;11.55;10.32;;;;;;;17.16;79.07;101780.69;4984135;28;20058;-75
2022/07/24 01:59:11;;;;;;;11.70;10.60;;;;;;;17.05;79.65;101778.13;4989157;28;20062;-75
2022/07/24 02:01:36;;;;;;;10.75;9.75;;;;;;;17.11;79.95;101788.25;4989925;28;20414;-75
2022/07/24 02:04:01;;;;;;;12.20;10.93;;;;;;;17.01;80.23;101782.88;4989366;28;20030;-75
2022/07/24 02:06:27;;;;;;;12.40;11.10;;;;;;;16.94;80.14;101775.56;4989618;28;20060;-75
2022/07/24 02:08:52;;;;;;;13.00;11.52;;;;;;;16.92;80.23;101781.88;4988996;28;20026;-75
2022/07/24 02:11:18;;;;;;;13.30;10.80;;;;;;;16.90;80.65;101778.50;4990604;28;20030;-75
2022/07/24 02:13:45;;;;;;;15.10;11.05;;;;;;;16.87;80.43;101778.75;4990281;28;20033;-75
2022/07/24 02:16:10;;;;;;;12.10;10.90;;;;;;;16.86;81.18;101784.22;4974319;28;20397;-75
2022/07/24 02:18:35;;;;;;;12.27;11.02;;;;;;;16.76;81.28;101781.47;4973674;28;20034;-75
2022/07/24 02:21:01;;;;;;;12.13;10.95;;;;;;;16.75;80.99;101777.13;4985656;28;20046;-75
2022/07/24 02:23:26;;;;;;;12.75;11.10;;;;;;;16.74;81.27;101770.13;4993654;28;20488;-75
2022/07/24 02:25:51;;;;;;;12.68;11.38;;;;;;;16.66;81.74;101767.28;4992166;28;20036;-75
2022/07/24 02:28:20;;;;;;;11.45;10.35;;;;;;;16.69;81.56;101768.84;4993779;28;20408;-75
2022/07/24 02:30:46;;;;;;;12.25;11.00;;;;;;;16.68;81.97;101775.97;4980798;28;20126;-75
2022/07/24 02:33:11;;;;;;;12.32;11.02;;;;;;;16.60;81.99;101779.25;4988684;28;20105;-75
2022/07/24 02:35:37;;;;;;;14.23;11.90;;;;;;;16.60;82.37;101779.25;5005508;28;20461;-75
2022/07/24 02:38:03;;;;;;;12.13;11.02;;;;;;;16.54;82.82;101789.56;4973436;28;20169;-75
2022/07/24 02:40:29;;;;;;;12.20;10.90;;;;;;;16.49;83.00;101781.97;4974516;28;20469;-75
2022/07/24 02:42:55;;;;;;;14.55;11.13;;;;;;;16.45;82.94;101785.03;4993315;28;20086;-75
2022/07/24 02:45:20;;;;;;;12.57;11.38;;;;;;;16.38;83.15;101786.47;4991881;28;20481;-74
2022/07/24 02:47:54;;;;;;;14.95;11.35;;;;;;;16.32;83.40;101793.16;4975597;28;20085;-75
2022/07/24 02:50:21;;;;;;;13.02;11.82;;;;;;;16.28;83.49;101797.88;4973737;28;20170;-75
2022/07/24 02:52:47;;;;;;;13.48;12.07;;;;;;;16.23;84.03;101797.41;4974357;28;20421;-75
2022/07/24 02:55:13;;;;;;;13.60;11.77;;;;;;;16.21;84.44;101798.50;4973268;28;20109;-75
2022/07/24 02:57:38;;;;;;;13.52;12.07;;;;;;;16.13;84.58;101793.00;4982807;28;20527;-75
2022/07/24 03:00:07;;;;;;;12.50;11.30;;;;;;;16.09;84.73;101789.75;4993355;28;20076;-75
2022/07/24 03:02:33;;;;;;;14.00;11.85;;;;;;;16.10;84.78;101788.78;4991307;28;20113;-75
2022/07/24 03:04:58;;;;;;;13.73;12.32;;;;;;;16.04;85.34;101796.41;4991599;28;20121;-75
2022/07/24 03:07:23;;;;;;;14.00;12.60;;;;;;;16.01;85.32;101783.38;4991669;28;20635;-75
2022/07/24 03:09:49;;;;;;;14.73;12.93;;;;;;;16.00;85.42;101777.22;4992789;28;20034;-75
2022/07/24 03:12:14;;;;;;;14.15;12.75;;;;;;;16.00;85.41;101777.22;4992638;28;20030;-75
2022/07/24 03:14:39;;;;;;;14.68;13.35;;;;;;;16.01;85.39;101780.72;4990448;28;20030;-75
2022/07/24 03:17:05;;;;;;;15.07;13.65;;;;;;;15.94;85.82;101781.22;4991654;28;20484;-75
2022/07/24 03:19:30;;;;;;;16.52;14.90;;;;;;;15.96;86.01;101778.44;4996182;28;20508;-75
2022/07/24 03:21:55;;;;;;;17.67;15.93;;;;;;;15.96;86.21;101779.28;4971382;28;20062;-75
2022/07/24 03:24:21;;;;;;;17.02;15.25;;;;;;;15.97;85.84;101775.66;4972744;28;20038;-75
2022/07/24 03:26:46;;;;;;;17.92;15.90;;;;;;;15.91;86.31;101783.28;4986383;28;20443;-75
2022/07/24 03:29:11;;;;;;;17.95;16.25;;;;;;;15.91;86.48;101775.31;4991397;28;20030;-75
2022/07/24 03:31:37;;;;;;;17.65;15.85;;;;;;;15.87;86.22;101774.72;5007108;28;20030;-75
2022/07/24 03:34:02;;;;;;;18.08;16.13;;;;;;;15.86;86.88;101778.34;4992475;28;20022;-75
2022/07/24 03:36:27;;;;;;;18.05;16.25;;;;;;;15.88;86.61;101772.91;4989881;28;20172;-75
2022/07/24 03:38:52;;;;;;;17.63;15.88;;;;;;;15.88;86.64;101775.56;4973898;28;20025;-75
2022/07/24 03:41:18;;;;;;;18.63;16.65;;;;;;;15.90;86.76;101784.25;4979468;28;20096;-75
2022/07/24 03:43:43;;;;;;;20.20;16.83;;;;;;;15.88;86.75;101783.53;4992172;28;20483;-75
2022/07/24 03:46:08;;;;;;;19.98;17.98;;;;;;;15.80;87.07;101773.53;4992473;28;20089;-75
2022/07/24 03:48:34;;;;;;;20.90;17.85;;;;;;;15.80;87.26;101773.53;4991338;28;20027;-75
2022/07/24 03:50:59;;;;;;;20.00;17.92;;;;;;;15.86;86.72;101767.72;4991824;28;20385;-75
2022/07/24 03:53:24;;;;;;;19.42;17.50;;;;;;;15.83;86.91;101767.13;5023110;28;20034;-75
2022/07/24 03:55:50;;;;;;;19.92;18.00;;;;;;;15.79;87.27;101768.38;4980246;28;20035;-75
2022/07/24 03:58:15;;;;;;;22.45;19.58;;;;;;;15.75;87.40;101765.13;4974104;28;20396;-75
2022/07/24 04:00:40;;;;;;;20.30;18.27;;;;;;;15.75;87.58;101769.59;4991261;28;20469;-75
2022/07/24 04:03:06;;;;;;;22.15;19.80;;;;;;;15.72;88.01;101768.03;4992253;28;20027;-75
2022/07/24 04:05:31;;;;;;;23.20;20.15;;;;;;;15.72;88.32;101772.47;4991367;28;20050;-75
2022/07/24 04:07:56;;;;;;;23.25;20.75;;;;;;;15.70;88.57;101766.47;4992130;28;20034;-75
2022/07/24 04:10:22;;;;;;;22.45;20.05;;;;;;;15.65;88.89;101769.50;4991640;28;20476;-75
2022/07/24 04:12:47;;;;;;;23.70;21.17;;;;;;;15.69;88.83;101768.28;4977658;28;20058;-75
2022/07/24 04:15:12;;;;;;;24.85;22.17;;;;;;;15.74;88.89;101762.59;4972250;28;20030;-75
2022/07/24 04:17:39;;;;;;;24.17;21.83;;;;;;;15.74;88.99;101763.44;4971402;28;20041;-75
2022/07/24 04:20:06;;;;;;;30.95;25.42;;;;;;;15.75;89.68;101758.97;4982701;28;20030;-75
2022/07/24 04:22:31;;;;;;;28.25;25.23;;;;;;;15.74;89.84;101765.25;4989496;28;20049;-75
2022/07/24 04:24:56;;;;;;;28.33;25.25;;;;;;;15.83;89.88;101773.28;4991106;28;20336;-75
2022/07/24 04:27:21;;;;;;;29.50;26.35;;;;;;;15.80;90.04;101775.34;4987376;28;20033;-75
2022/07/24 04:29:47;;;;;;;28.88;25.60;;;;;;;15.86;89.66;101777.50;4970852;28;20026;-75
2022/07/24 04:32:12;;;;;;;33.00;26.80;;;;;;;15.86;89.72;101777.50;4971176;28;20026;-75
2022/07/24 04:34:37;;;;;;;30.50;27.38;;;;;;;15.86;90.07;101788.13;4979064;28;20506;-75
2022/07/24 04:37:04;;;;;;;32.47;28.77;;;;;;;15.87;90.32;101784.50;4991702;28;20022;-76
2022/07/24 04:39:29;;;;;;;30.30;27.10;;;;;;;15.95;90.07;101784.72;4990471;28;20073;-76
2022/07/24 04:41:54;;;;;;;31.90;28.60;;;;;;;15.93;90.02;101789.31;5006579;28;20030;-76
2022/07/24 04:44:19;;;;;;;36.03;31.27;;;;;;;15.93;90.53;101789.31;4990502;28;20037;-76
2022/07/24 04:46:45;;;;;;;37.10;30.83;;;;;;;15.95;90.51;101782.06;4977221;28;20397;-76
2022/07/24 04:49:10;;;;;;;37.22;32.30;;;;;;;15.96;90.92;101781.09;4974798;28;20125;-76
2022/07/24 04:51:35;;;;;;;37.08;32.60;;;;;;;15.97;90.88;101790.75;4990598;28;20026;-76
2022/07/24 04:54:01;;;;;;;34.90;31.08;;;;;;;16.02;90.50;101787.72;4990478;28;20030;-76
2022/07/24 04:56:30;;;;;;;35.78;31.70;;;;;;;16.03;90.84;101779.66;4990355;28;20026;-76
2022/07/24 04:58:55;;;;;;;36.22;32.25;;;;;;;16.04;90.73;101781.31;4991598;28;20084;-75
2022/07/24 05:01:20;;;;;;;39.13;34.70;;;;;;;16.08;91.04;101781.91;4989430;28;20053;-75
2022/07/24 05:03:46;;;;;;;41.70;36.22;;;;;;;16.08;91.54;101780.09;4989442;28;20029;-75
2022/07/24 05:06:11;;;;;;;45.95;36.92;;;;;;;16.13;91.02;101779.72;4990621;28;20026;-75
2022/07/24 05:08:36;;;;;;;43.28;36.83;;;;;;;16.14;91.64;101766.31;4989857;28;20884;-75
2022/07/24 05:11:02;;;;;;;40.35;36.08;;;;;;;16.16;91.26;101769.69;4990191;28;20831;-75
2022/07/24 05:13:27;;;;;;;39.90;35.47;;;;;;;16.25;90.92;101768.06;4990065;28;20078;-75
2022/07/24 05:15:52;;;;;;;41.85;35.28;;;;;;;16.26;91.20;101775.06;4990060;28;20458;-75
2022/07/24 05:18:19;;;;;;;39.50;35.50;;;;;;;16.31;91.45;101780.84;4988932;28;20049;-75
2022/07/24 05:20:44;;;;;;;39.88;35.22;;;;;;;16.33;91.26;101775.41;4990427;28;20173;-75
2022/07/24 05:23:09;;;;;;;39.25;35.15;;;;;;;16.34;91.57;101785.91;4989769;28;20109;-75
2022/07/24 05:25:35;;;;;;;38.67;34.50;;;;;;;16.43;91.12;101786.97;4990368;28;20057;-75
2022/07/24 05:28:00;;;;;;;40.28;35.90;;;;;;;16.46;90.94;101789.38;4990095;28;20232;-75
2022/07/24 05:30:25;;;;;;;40.25;34.88;;;;;;;16.55;91.28;101796.56;4998072;28;20026;-75
2022/07/24 05:32:51;;;;;;;41.25;34.78;;;;;;;16.57;91.11;101794.63;4990363;28;20018;-76
2022/07/24 05:35:16;;;;;;;40.33;35.92;;;;;;;16.67;91.10;101794.72;4989217;28;20062;-75
2022/07/24 05:37:41;;;;;;;42.83;35.67;;;;;;;16.73;90.22;101800.34;4990092;28;20026;-75
2022/07/24 05:40:07;;;;;;;41.92;36.85;;;;;;;16.78;90.22;101792.81;4990485;28;20148;-76
2022/07/24 05:42:33;;;;;;;47.95;36.58;;;;;;;16.82;90.08;101793.41;4989426;28;20479;-75
2022/07/24 05:44:58;;;;;;;40.40;35.83;;;;;;;16.93;89.80;101790.69;4988624;28;20022;-75
2022/07/24 05:47:24;;;;;;;42.28;36.13;;;;;;;16.97;89.19;101791.25;4989842;28;20106;-75
2022/07/24 05:49:49;;;;;;;47.40;35.22;;;;;;;17.02;88.94;101789.88;4989909;28;20036;-76
2022/07/24 05:52:14;;;;;;;39.08;34.20;;;;;;;17.08;88.42;101791.16;4990134;28;20030;-75
2022/07/24 05:54:40;;;;;;;41.00;34.20;;;;;;;17.10;88.54;101792.72;4990287;28;20045;-75
2022/07/24 05:57:05;;;;;;;39.47;33.47;;;;;;;17.22;88.46;101801.47;4989760;28;20026;-75
2022/07/24 05:59:30;;;;;;;41.20;33.80;;;;;;;17.28;87.35;101784.97;4988503;28;20026;-75
2022/07/24 06:01:56;;;;;;;37.22;32.95;;;;;;;17.34;86.69;101789.75;4981259;28;20476;-75
2022/07/24 06:04:21;;;;;;;36.70;32.65;;;;;;;17.38;87.29;101788.50;4987404;28;20512;-75
2022/07/24 06:06:47;;;;;;;43.80;33.17;;;;;;;17.52;86.44;101796.13;4988997;28;20026;-75
2022/07/24 06:09:12;;;;;;;37.38;30.95;;;;;;;17.58;85.96;101801.88;4990141;28;20023;-76
2022/07/24 06:11:38;;;;;;;33.25;29.65;;;;;;;17.63;84.82;101799.66;5020332;28;20084;-75
2022/07/24 06:14:03;;;;;;;36.05;30.08;;;;;;;17.71;84.45;101797.19;4990116;28;20058;-75
2022/07/24 06:16:28;;;;;;;36.15;30.80;;;;;;;17.79;83.71;101800.00;4989033;28;20029;-75
2022/07/24 06:18:54;;;;;;;36.42;28.67;;;;;;;17.88;83.17;101804.50;4979616;28;20085;-75
2022/07/24 06:21:19;;;;;;;32.83;28.17;;;;;;;17.94;82.77;101809.28;4984179;28;20133;-75
2022/07/24 06:23:44;;;;;;;30.75;26.98;;;;;;;18.00;82.16;101800.72;4997524;28;20082;-76
2022/07/24 06:26:10;;;;;;;38.83;28.75;;;;;;;18.06;82.03;101799.38;4994550;28;20030;-76
2022/07/24 06:28:35;;;;;;;31.65;26.45;;;;;;;18.13;81.76;101801.31;4990722;28;20025;-76
2022/07/24 06:31:00;;;;;;;30.92;27.30;;;;;;;18.19;82.13;101796.41;4994135;28;20184;-76
2022/07/24 06:33:26;;;;;;;32.50;26.70;;;;;;;18.28;81.41;101796.41;4994317;28;20041;-77
2022/07/24 06:35:51;;;;;;;26.45;23.60;;;;;;;18.38;79.89;101804.41;4991963;28;20053;-77
2022/07/24 06:38:16;;;;;;;27.60;24.50;;;;;;;18.51;79.82;101812.97;4992253;28;20377;-77
2022/07/24 06:40:42;;;;;;;29.98;24.75;;;;;;;18.62;80.01;101801.34;4996642;28;20053;-76
2022/07/24 06:43:08;;;;;;;25.33;21.73;;;;;;;18.67;77.57;101799.94;4997815;28;20026;-77
2022/07/24 06:45:33;;;;;;;24.42;21.77;;;;;;;18.79;77.58;101797.94;4995027;28;20026;-77
2022/07/24 06:48:03;;;;;;;29.10;20.33;;;;;;;18.90;75.65;101791.63;4995458;28;20037;-77
2022/07/24 06:50:28;;;;;;;25.05;19.00;;;;;;;19.01;75.63;101805.59;4996385;28;20275;-77
2022/07/24 06:52:54;;;;;;;22.38;18.38;;;;;;;19.09;75.43;101791.53;4997639;28;20027;-76
2022/07/24 06:55:20;;;;;;;20.52;17.90;;;;;;;19.17;74.37;101796.13;4995058;28;20054;-76
2022/07/24 06:57:45;;;;;;;21.40;18.83;;;;;;;19.28;74.27;101790.66;4996273;28;20026;-77
2022/07/24 07:00:11;;;;;;;17.80;15.68;;;;;;;19.36;73.11;101782.72;5000688;28;20448;-76
2022/07/24 07:02:39;;;;;;;19.98;16.52;;;;;;;19.50;72.46;101784.06;4993676;28;20121;-77
2022/07/24 07:05:06;;;;;;;22.98;17.45;;;;;;;19.62;73.64;101794.44;4989695;28;20034;-77
2022/07/24 07:07:32;;;;;;;16.88;15.02;;;;;;;19.89;70.99;101779.34;4979630;28;20034;-77
2022/07/24 07:09:57;;;;;;;15.65;12.43;;;;;;;20.09;68.40;101774.72;4993281;28;20267;-77
2022/07/24 07:12:22;;;;;;;13.63;12.23;;;;;;;20.40;68.68;101778.69;5007630;28;20384;-77
2022/07/24 07:14:48;;;;;;;13.35;11.40;;;;;;;20.57;65.70;101787.69;4992118;28;20495;-77
2022/07/24 07:17:15;;;;;;;14.95;11.95;;;;;;;20.80;66.01;101785.34;4992812;28;20023;-76
2022/07/24 07:19:42;;;;;;;11.45;9.68;;;;;;;21.02;63.75;101795.53;4989654;28;20031;-77
2022/07/24 07:22:11;;;;;;;10.20;8.80;;;;;;;21.19;63.30;101791.94;5011762;28;20046;-76
2022/07/24 07:24:36;;;;;;;9.48;7.85;;;;;;;21.48;61.60;101786.25;4974094;28;20705;-77
2022/07/24 07:27:03;;;;;;;7.78;5.97;;;;;;;21.66;58.69;101794.19;4972819;28;20061;-77
2022/07/24 07:29:28;;;;;;;7.80;6.78;;;;;;;21.80;59.95;101796.22;4974068;28;20351;-77
2022/07/24 07:31:53;;;;;;;9.73;7.10;;;;;;;21.97;58.47;101785.53;4972959;28;20440;-77
2022/07/24 07:34:19;;;;;;;10.73;5.90;;;;;;;22.14;57.89;101781.94;4985802;28;20023;-77
2022/07/24 07:36:44;;;;;;;9.38;6.78;;;;;;;22.26;56.14;101783.25;4972238;28;20029;-77
2022/07/24 07:39:10;;;;;;;8.13;6.30;;;;;;;22.33;55.99;101783.44;4972908;28;20037;-77
2022/07/24 07:41:35;;;;;;;6.60;5.88;;;;;;;22.45;54.55;101788.31;4970871;28;20034;-76
2022/07/24 07:44:01;;;;;;;6.78;4.95;;;;;;;22.50;54.14;101777.91;4972553;28;20026;-76
2022/07/24 07:46:26;;;;;;;6.22;4.88;;;;;;;22.72;54.50;101784.41;4975225;28;20034;-76
2022/07/24 07:48:52;;;;;;;4.20;3.80;;;;;;;22.98;53.43;101786.91;4987751;28;20041;-76
2022/07/24 07:51:20;;;;;;;6.20;3.90;;;;;;;23.24;53.05;101788.53;4991541;28;20030;-76
2022/07/24 07:53:46;;;;;;;5.65;3.33;;;;;;;23.45;51.89;101778.88;4990483;28;20073;-76
2022/07/24 07:56:11;;;;;;;3.15;2.75;;;;;;;23.42;51.63;101770.31;4991351;28;20030;-77
2022/07/24 07:58:37;;;;;;;3.53;2.38;;;;;;;23.62;48.73;101776.97;4991807;28;20026;-78
2022/07/24 08:01:02;;;;;;;3.47;2.67;;;;;;;23.85;49.06;101773.47;4992068;28;20018;-78
2022/07/24 08:03:28;;;;;;;3.67;2.78;;;;;;;24.06;47.80;101779.06;4990348;28;20058;-78
2022/07/24 08:05:53;;;;;;;4.40;2.70;;;;;;;24.13;47.63;101774.63;4986242;28;20451;-78
2022/07/24 08:08:18;;;;;;;3.47;3.03;;;;;;;24.08;47.31;101768.13;4990865;28;20472;-77
2022/07/24 08:10:44;;;;;;;3.22;2.80;;;;;;;24.12;47.77;101762.19;4989869;28;20037;-77
2022/07/24 08:13:11;;;;;;;4.30;2.90;;;;;;;24.38;48.18;101773.44;4990009;28;20425;-77
2022/07/24 08:15:36;;;;;;;3.17;2.45;;;;;;;24.58;49.14;101767.56;4989956;28;20097;-78
2022/07/24 08:18:01;;;;;;;4.57;2.80;;;;;;;25.03;48.25;101763.06;4985151;28;20022;-77
2022/07/24 08:20:28;;;;;;;3.30;2.80;;;;;;;25.02;45.42;101773.00;4989126;28;20534;-78
2022/07/24 08:22:54;;;;;;;3.00;2.67;;;;;;;25.02;45.25;101766.78;4991316;28;20089;-76
2022/07/24 08:25:20;;;;;;;3.22;2.47;;;;;;;25.11;46.08;101771.06;4988868;28;20055;-76
2022/07/24 08:27:45;;;;;;;4.25;2.50;;;;;;;25.39;45.47;101769.38;5006069;28;20026;-78
2022/07/24 08:30:11;;;;;;;4.60;3.30;;;;;;;25.22;44.98;101768.75;4989229;28;20032;-77
2022/07/24 08:32:37;;;;;;;8.98;3.05;;;;;;;25.29;44.68;101782.31;4990326;28;20026;-77
2022/07/24 08:35:04;;;;;;;3.78;3.10;;;;;;;25.18;44.87;101777.38;5001969;28;20097;-77
2022/07/24 08:37:30;;;;;;;3.15;2.85;;;;;;;25.36;45.56;101771.59;4988011;28;20412;-77
2022/07/24 08:39:55;;;;;;;3.60;3.05;;;;;;;25.51;45.05;101767.84;4991123;28;20080;-75
2022/07/24 08:42:21;;;;;;;4.72;3.00;;;;;;;25.72;45.37;101774.34;4990829;28;20081;-77
2022/07/24 08:44:47;;;;;;;7.35;3.67;;;;;;;25.70;44.91;101766.47;4991371;28;20476;-77
2022/07/24 08:47:14;;;;;;;4.80;3.30;;;;;;;25.54;44.78;101762.06;4990483;28;20034;-77
2022/07/24 08:49:40;;;;;;;4.85;2.88;;;;;;;25.73;45.23;101765.25;4991176;28;20098;-77
2022/07/24 08:52:08;;;;;;;4.30;3.10;;;;;;;25.86;45.27;101757.28;4985120;28;20113;-77
2022/07/24 08:54:35;;;;;;;4.18;3.60;;;;;;;25.88;44.77;101760.63;4972263;28;20047;-76
2022/07/24 08:57:02;;;;;;;4.40;3.25;;;;;;;25.98;44.55;101763.81;4991161;28;20030;-77
2022/07/24 08:59:28;;;;;;;4.47;3.00;;;;;;;25.85;45.39;101758.31;4989668;28;20765;-77
2022/07/24 09:01:53;;;;;;;4.55;2.88;;;;;;;26.11;45.59;101763.97;5020290;28;20029;-77
2022/07/24 09:04:41;;;;;;;3.20;2.90;;;;;;;26.39;47.32;101764.03;4990389;28;20027;-78
2022/07/24 09:07:09;;;;;;;4.32;3.17;;;;;;;26.49;45.80;101755.63;4990204;28;20030;-77
2022/07/24 09:09:36;;;;;;;3.95;3.55;;;;;;;26.39;43.83;101760.50;4977769;28;20035;-77
2022/07/24 09:12:16;;;;;;;4.00;3.20;;;;;;;26.63;45.75;101768.16;4978515;28;20026;-77
2022/07/24 09:14:46;;;;;;;3.67;3.03;;;;;;;26.52;44.46;101753.34;4986345;28;20484;-77
2022/07/24 09:17:14;;;;;;;3.10;2.80;;;;;;;26.71;44.63;101743.72;4982304;28;20033;-77
2022/07/24 09:19:50;;;;;;;3.10;2.78;;;;;;;26.92;45.79;101750.09;4984691;28;20133;-77
2022/07/24 09:22:31;;;;;;;4.88;3.00;;;;;;;27.07;45.04;101745.41;4987568;28;20042;-77
2022/07/24 09:25:14;;;;;;;3.30;2.75;;;;;;;27.07;44.90;101748.13;4986016;28;20037;-77
2022/07/24 09:30:48;;;;;;;4.40;2.72;;;;;;;26.96;42.99;101733.28;4783505;26;20054;-91
2022/07/24 09:33:19;;;;;;;3.90;2.78;;;;;;;27.26;43.79;101725.75;5010118;28;20029;-90
2022/07/24 09:35:50;;;;;;;4.10;2.63;;;;;;;27.28;43.32;101718.28;5002107;28;20021;-91
2022/07/24 09:38:21;;;;;;;4.57;2.55;;;;;;;27.14;43.53;101727.34;5004729;28;20026;-91
2022/07/24 09:40:50;;;;;;;2.75;2.35;;;;;;;26.98;43.17;101723.13;5009186;28;20068;-91
2022/07/24 09:43:19;;;;;;;3.17;2.70;;;;;;;26.96;44.60;101727.88;5009810;28;20166;-90
2022/07/24 09:45:56;;;;;;;3.75;2.58;;;;;;;26.78;44.19;101716.75;5003128;28;20031;-91
2022/07/24 09:48:25;;;;;;;2.75;2.55;;;;;;;27.09;44.29;101719.03;5000005;28;20033;-91
2022/07/24 09:50:52;;;;;;;3.83;2.50;;;;;;;27.38;44.17;101724.13;5010928;28;20395;-91
2022/07/24 09:53:19;;;;;;;2.40;2.20;;;;;;;27.65;42.63;101714.28;5008647;28;20112;-91
2022/07/24 09:56:02;;;;;;;2.50;2.25;;;;;;;27.72;42.93;101720.53;5006318;28;20026;-91
2022/07/24 09:58:28;;;;;;;;;;;;;;;27.98;43.95;101714.28;5001913;28;20017;-91
2022/07/24 10:00:55;;;;;;;5.13;2.30;;;;;;;27.88;42.56;101704.94;4990846;28;19914;-91
2022/07/24 10:03:25;;;;;;;2.72;2.13;;;;;;;27.65;41.95;101714.28;5004892;28;20022;-92
2022/07/24 10:05:55;;;;;;;4.28;2.10;;;;;;;27.70;42.16;101711.78;5008796;28;20040;-91
2022/07/24 10:08:21;;;;;;;2.38;2.10;;;;;;;27.77;41.73;101704.50;5007595;28;20037;-92
2022/07/24 10:10:49;;;;;;;3.00;2.10;;;;;;;27.79;41.83;101698.91;5013567;28;20033;-92
2022/07/24 10:13:15;;;;;;;2.60;2.08;;;;;;;27.85;41.42;101697.22;5010583;28;20024;-91
2022/07/24 10:15:52;;;;;;;2.53;2.33;;;;;;;28.07;42.21;101702.25;5006517;28;20018;-91
2022/07/24 10:18:19;;;;;;;2.42;2.20;;;;;;;28.15;40.48;101697.66;5002934;28;20140;-91
2022/07/24 10:20:46;;;;;;;2.20;1.90;;;;;;;28.40;40.21;101704.13;5010354;28;20025;-91
2022/07/24 10:23:47;;;;;;;3.33;2.13;;;;;;;28.64;41.87;101698.03;4993082;28;20033;-91
2022/07/24 10:26:21;;;;;;;2.65;2.40;;;;;;;28.77;40.08;101685.50;4999537;28;20065;-90
2022/07/24 10:28:59;;;;;;;2.83;2.30;;;;;;;28.42;39.88;101684.94;4997224;28;20021;-91
2022/07/24 10:31:26;;;;;;;3.17;2.15;;;;;;;28.45;39.80;101684.56;5002301;28;20045;-91
2022/07/24 10:33:56;;;;;;;2.97;2.20;;;;;;;28.65;40.25;101683.47;5010560;28;20117;-91
2022/07/24 10:36:31;;;;;;;2.88;2.30;;;;;;;28.81;40.60;101678.59;5011333;28;20053;-90
2022/07/24 10:39:16;;;;;;;2.67;2.20;;;;;;;28.84;40.12;101670.09;5009724;28;20084;-90
2022/07/24 10:41:41;;;;;;;4.72;2.38;;;;;;;29.01;37.96;101664.00;5014085;28;20033;-91
2022/07/24 10:44:32;;;;;;;2.88;2.08;;;;;;;29.24;40.82;101670.78;5012930;28;20030;-91
2022/07/24 10:47:13;;;;;;;3.28;2.50;;;;;;;29.02;38.24;101684.63;5002845;28;20030;-92
2022/07/24 10:49:45;;;;;;;2.63;2.42;;;;;;;28.77;36.62;101666.53;5012963;28;20026;-92
2022/07/24 10:52:20;;;;;;;3.83;2.33;;;;;;;28.72;38.23;101667.19;5014006;28;20017;-94
2022/07/24 10:54:56;;;;;;;;;;;;;;;;;;;;;
2022/07/24 10:57:54;;;;;;;3.83;2.70;;;;;;;29.33;39.48;101658.63;5008133;28;20029;-93
2022/07/24 11:00:25;;;;;;;5.20;2.65;;;;;;;29.52;39.51;101657.69;5011666;28;20030;-91
2022/07/24 11:03:03;;;;;;;2.42;2.22;;;;;;;29.74;38.81;101652.75;5012812;28;20387;-92
2022/07/24 11:05:36;;;;;;;5.82;2.58;;;;;;;29.84;37.79;101654.94;5005467;28;20299;-91
2022/07/24 11:08:22;;;;;;;3.67;2.40;;;;;;;29.51;38.57;101663.31;5001150;28;20030;-91
2022/07/24 11:10:52;;;;;;;5.22;2.28;;;;;;;29.52;37.27;101654.97;5011608;28;20014;-91
2022/07/24 11:13:33;;;;;;;5.68;2.45;;;;;;;29.61;38.27;101659.06;5011481;28;20121;-91
2022/07/24 11:16:13;;;;;;;5.78;2.33;;;;;;;29.54;38.25;101654.75;5013583;28;20026;-91
2022/07/24 11:18:47;;;;;;;3.20;2.30;;;;;;;29.48;38.32;101655.63;5013317;28;20040;-91
2022/07/24 11:21:30;;;;;;;2.55;2.15;;;;;;;29.49;38.12;101657.28;5010478;28;20056;-92
2022/07/24 11:24:16;;;;;;;4.65;2.55;;;;;;;29.47;38.63;101646.66;5011854;28;20029;-93